createdAt,value
2022-08-23T00:00:01.193Z,54.06
2022-08-23T00:02:58.324Z,54.11
2022-08-23T00:05:46.683Z,54.04
2022-08-23T00:08:32.672Z,54.31
2022-08-23T00:11:30.257Z,54.14
2022-08-23T00:14:20.951Z,54.46
2022-08-23T00:17:09.203Z,54.24
2022-08-23T00:19:55.204Z,54.07
2022-08-23T00:22:41.220Z,54.42
2022-08-23T00:25:27.171Z,54.28
2022-08-23T00:28:14.686Z,54.75
2022-08-23T00:31:00.955Z,54.53
2022-08-23T00:33:46.913Z,54.83
2022-08-23T00:36:32.842Z,54.50
2022-08-23T00:39:19.704Z,54.68
2022-08-23T00:42:31.091Z,54.68
2022-08-23T00:45:39.381Z,54.66
2022-08-23T00:48:25.888Z,54.82
2022-08-23T00:51:25.153Z,55.01
2022-08-23T00:54:13.257Z,54.80
2022-08-23T00:57:01.991Z,55.32
2022-08-23T00:59:47.849Z,55.05
2022-08-23T01:02:34.004Z,55.10
2022-08-23T01:05:21.908Z,55.14
2022-08-23T01:08:08.009Z,55.15
2022-08-23T01:10:58.121Z,55.23
2022-08-23T01:13:58.984Z,55.44
2022-08-23T01:16:49.012Z,55.58
2022-08-23T01:19:40.376Z,55.55
2022-08-23T01:22:34.350Z,55.58
2022-08-23T01:25:22.655Z,55.85
2022-08-23T01:28:09.120Z,55.64
2022-08-23T01:30:55.489Z,55.58
2022-08-23T01:33:42.752Z,55.88
2022-08-23T01:36:29.540Z,55.82
2022-08-23T01:39:15.452Z,55.75
2022-08-23T01:42:01.390Z,56.09
2022-08-23T01:44:53.969Z,56.04
2022-08-23T01:47:41.025Z,55.99
2022-08-23T01:50:28.900Z,55.98
2022-08-23T01:53:15.712Z,56.08
2022-08-23T01:56:07.418Z,56.10
2022-08-23T01:58:55.913Z,55.95
2022-08-23T02:01:44.941Z,56.15
2022-08-23T02:04:31.473Z,55.86
2022-08-23T02:07:17.614Z,56.21
2022-08-23T02:10:05.813Z,55.79
2022-08-23T02:12:51.959Z,56.02
2022-08-23T02:15:44.118Z,56.26
2022-08-23T02:18:30.582Z,56.25
2022-08-23T02:21:17.998Z,56.19
2022-08-23T02:24:11.340Z,56.09
2022-08-23T02:27:00.953Z,56.15
2022-08-23T02:29:48.296Z,56.13
2022-08-23T02:32:36.550Z,56.10
2022-08-23T02:35:24.186Z,56.20
2022-08-23T02:38:12.095Z,56.06
2022-08-23T02:41:00.750Z,56.00
2022-08-23T02:43:52.677Z,56.22
2022-08-23T02:46:40.704Z,56.21
2022-08-23T02:49:26.877Z,56.25
2022-08-23T02:52:13.088Z,56.29
2022-08-23T02:55:00.076Z,56.27
2022-08-23T02:57:46.268Z,56.23
2022-08-23T03:00:32.843Z,56.33
2022-08-23T03:03:20.163Z,56.44
2022-08-23T03:06:25.486Z,56.35
2022-08-23T03:09:12.549Z,56.47
2022-08-23T03:11:58.571Z,56.33
2022-08-23T03:14:44.892Z,56.38
2022-08-23T03:17:32.429Z,56.73
2022-08-23T03:20:20.185Z,56.47
2022-08-23T03:23:06.612Z,56.51
2022-08-23T03:25:52.961Z,56.73
2022-08-23T03:28:46.563Z,56.57
2022-08-23T03:31:32.968Z,56.44
2022-08-23T03:34:25.291Z,56.66
2022-08-23T03:37:11.523Z,56.69
2022-08-23T03:39:58.362Z,56.78
2022-08-23T03:42:44.348Z,57.00
2022-08-23T03:45:32.893Z,56.90
2022-08-23T03:48:19.302Z,56.86
2022-08-23T03:51:05.520Z,56.83
2022-08-23T03:53:52.298Z,56.96
2022-08-23T03:56:50.481Z,56.71
2022-08-23T03:59:39.282Z,56.99
2022-08-23T04:02:27.845Z,57.14
2022-08-23T04:05:14.328Z,57.01
2022-08-23T04:08:33.339Z,57.19
2022-08-23T04:11:22.988Z,56.97
2022-08-23T04:14:17.924Z,56.95
2022-08-23T04:17:04.340Z,56.90
2022-08-23T04:19:50.349Z,57.17
2022-08-23T04:22:38.263Z,57.04
2022-08-23T04:25:34.507Z,56.92
2022-08-23T04:28:22.828Z,57.40
2022-08-23T04:31:09.125Z,57.24
2022-08-23T04:33:57.953Z,57.45
2022-08-23T04:36:55.158Z,57.45
2022-08-23T04:40:00.318Z,57.21
2022-08-23T04:42:53.107Z,57.32
2022-08-23T04:45:40.561Z,57.37
2022-08-23T04:48:32.105Z,57.61
2022-08-23T04:51:19.159Z,57.32
2022-08-23T04:54:06.305Z,57.37
2022-08-23T04:57:01.756Z,57.60
2022-08-23T04:59:49.230Z,57.48
2022-08-23T05:02:36.241Z,57.32
2022-08-23T05:05:22.388Z,57.47
2022-08-23T05:08:09.624Z,57.84
2022-08-23T05:10:56.079Z,57.53
2022-08-23T05:13:42.041Z,57.59
2022-08-23T05:16:29.826Z,57.75
2022-08-23T05:19:28.014Z,57.89
2022-08-23T05:22:14.429Z,57.89
2022-08-23T05:25:19.500Z,57.73
2022-08-23T05:28:06.047Z,57.75
2022-08-23T05:31:04.557Z,57.79
2022-08-23T05:33:58.119Z,57.85
2022-08-23T05:36:56.072Z,58.10
2022-08-23T05:39:56.300Z,57.91
2022-08-23T05:42:43.189Z,57.95
2022-08-23T05:45:29.136Z,57.93
2022-08-23T05:48:15.836Z,57.67
2022-08-23T05:51:21.021Z,57.75
2022-08-23T05:54:08.482Z,57.63
2022-08-23T05:56:54.951Z,57.80
2022-08-23T05:59:42.032Z,57.80
2022-08-23T06:02:28.418Z,58.08
2022-08-23T06:05:14.324Z,58.02
2022-08-23T06:08:03.133Z,58.26
2022-08-23T06:10:49.785Z,58.08
2022-08-23T06:13:45.720Z,58.02
2022-08-23T06:16:38.560Z,58.33
2022-08-23T06:19:25.099Z,58.00
2022-08-23T06:22:29.827Z,58.52
2022-08-23T06:25:15.866Z,58.74
2022-08-23T06:28:25.776Z,58.62
2022-08-23T06:31:14.157Z,58.68
2022-08-23T06:34:20.291Z,58.75
2022-08-23T06:37:23.002Z,58.69
2022-08-23T06:40:35.421Z,58.64
2022-08-23T06:43:40.990Z,58.89
2022-08-23T06:46:38.973Z,58.85
2022-08-23T06:49:25.557Z,59.03
2022-08-23T06:52:12.473Z,58.74
2022-08-23T06:55:16.037Z,58.98
2022-08-23T06:58:13.877Z,58.77
2022-08-23T07:01:44.003Z,58.88
2022-08-23T07:04:38.608Z,58.98
2022-08-23T07:07:44.332Z,58.91
2022-08-23T07:10:34.488Z,58.75
2022-08-23T07:13:20.512Z,59.10
2022-08-23T07:16:06.954Z,59.17
2022-08-23T07:18:55.631Z,59.02
2022-08-23T07:21:42.566Z,59.26
2022-08-23T07:24:33.270Z,59.21
2022-08-23T07:27:20.952Z,59.22
2022-08-23T07:30:16.023Z,59.30
2022-08-23T07:33:03.905Z,59.27
2022-08-23T10:57:37.669Z,61.73
2022-08-23T11:00:27.473Z,60.86
2022-08-23T11:03:29.853Z,60.37
2022-08-23T11:06:24.780Z,59.52
2022-08-23T11:09:18.287Z,58.88
2022-08-23T11:12:22.342Z,58.49
2022-08-23T11:15:11.475Z,57.94
2022-08-23T11:18:05.674Z,56.85
2022-08-23T11:20:58.534Z,56.76
2022-08-23T11:23:58.629Z,56.45
2022-08-23T11:26:46.439Z,55.92
2022-08-23T11:29:33.873Z,55.75
2022-08-23T11:32:43.328Z,55.22
2022-08-23T11:35:54.857Z,55.13
2022-08-23T11:38:48.282Z,54.78
2022-08-23T11:41:55.395Z,54.67
2022-08-23T11:44:48.482Z,54.69
2022-08-23T11:47:44.513Z,53.95
2022-08-23T11:50:55.675Z,53.85
2022-08-23T11:53:53.173Z,53.65
2022-08-23T11:56:48.238Z,53.92
2022-08-23T13:00:22.292Z,56.10
2022-08-23T13:03:29.029Z,55.48
2022-08-23T13:06:20.867Z,54.61
2022-08-23T13:09:21.910Z,54.24
2022-08-23T13:12:08.885Z,53.62
2022-08-23T13:14:57.412Z,53.36
2022-08-23T13:17:43.619Z,52.78
2022-08-23T13:20:29.528Z,52.39
2022-08-23T13:23:28.632Z,51.69
2022-08-23T13:26:42.827Z,51.18
2022-08-23T13:29:28.945Z,51.38
2022-08-23T13:32:25.745Z,50.57
2022-08-23T13:35:34.268Z,44.75
2022-08-23T13:38:22.120Z,50.16
2022-08-23T13:41:12.485Z,43.84
2022-08-23T13:43:58.728Z,48.99
2022-08-23T13:46:47.329Z,48.76
2022-08-23T13:49:36.742Z,49.13
2022-08-23T13:53:02.772Z,48.63
2022-08-23T13:55:29.749Z,48.69
2022-08-23T13:58:34.933Z,48.19
2022-08-23T14:01:20.997Z,48.51
2022-08-23T14:04:07.819Z,48.39
2022-08-23T14:06:54.058Z,47.87
2022-08-23T14:09:40.157Z,47.73
2022-08-23T14:12:29.974Z,46.89
2022-08-23T14:15:16.081Z,46.84
2022-08-23T14:18:02.028Z,46.16
2022-08-23T14:20:51.408Z,45.28
2022-08-23T14:23:37.549Z,45.63
2022-08-23T14:26:23.501Z,45.10
2022-08-23T14:29:09.359Z,45.44
2022-08-23T14:32:01.373Z,45.31
2022-08-23T14:34:47.404Z,44.44
2022-08-23T14:40:39.341Z,43.80
2022-08-23T14:43:26.962Z,43.93
2022-08-23T14:46:13.329Z,43.69
2022-08-23T14:48:59.231Z,43.73
2022-08-23T14:51:46.491Z,43.39
2022-08-23T14:54:33.105Z,43.08
2022-08-23T14:57:19.272Z,42.80
2022-08-23T15:00:08.734Z,42.71
2022-08-23T15:02:54.993Z,42.94
2022-08-23T15:05:41.065Z,42.33
2022-08-23T15:08:27.060Z,41.78
2022-08-23T15:14:24.638Z,41.46
2022-08-23T15:17:10.764Z,41.41
2022-08-23T15:19:56.684Z,41.19
2022-08-23T15:22:44.366Z,40.93
2022-08-23T15:25:33.709Z,40.11
2022-08-23T15:28:22.310Z,40.00
2022-08-23T15:31:12.093Z,39.80
2022-08-23T15:33:58.323Z,39.51
2022-08-23T15:36:44.578Z,39.84
2022-08-23T15:39:31.291Z,39.46
2022-08-23T15:42:20.344Z,39.46
2022-08-23T15:45:08.363Z,39.07
2022-08-23T15:47:56.658Z,38.96
2022-08-23T15:50:45.104Z,39.07
2022-08-23T15:53:31.590Z,39.06
2022-08-23T15:56:26.010Z,38.55
2022-08-23T15:59:14.161Z,38.94
2022-08-23T16:02:00.553Z,38.73
2022-08-23T16:04:47.685Z,38.60
2022-08-23T16:07:34.732Z,39.18
2022-08-23T16:10:21.152Z,39.36
2022-08-23T16:13:07.050Z,39.29
2022-08-23T16:15:53.083Z,39.42
2022-08-23T16:18:39.290Z,39.66
2022-08-23T16:21:27.452Z,39.75
2022-08-23T16:24:13.949Z,39.79
2022-08-23T16:26:59.868Z,40.15
2022-08-23T16:29:45.782Z,40.04
2022-08-23T16:32:31.693Z,40.20
2022-08-23T16:35:18.442Z,40.42
2022-08-23T16:38:04.337Z,40.44
2022-08-23T16:40:50.350Z,40.15
2022-08-23T16:43:36.321Z,40.56
2022-08-23T16:46:24.170Z,40.91
2022-08-23T16:49:16.023Z,41.08
2022-08-23T16:52:02.657Z,40.72
2022-08-23T16:54:48.965Z,41.22
2022-08-23T16:57:35.092Z,41.19
2022-08-23T17:00:21.807Z,41.17
2022-08-23T17:03:09.963Z,41.63
2022-08-23T17:05:56.336Z,41.42
2022-08-23T17:08:42.470Z,41.54
2022-08-23T17:11:32.740Z,41.55
2022-08-23T17:14:19.383Z,41.92
2022-08-23T17:17:05.646Z,41.88
2022-08-23T17:19:51.778Z,41.62
2022-08-23T17:22:38.517Z,42.13
2022-08-23T17:25:25.145Z,41.82
2022-08-23T17:28:11.000Z,42.24
2022-08-23T17:30:57.026Z,42.62
2022-08-23T17:33:43.733Z,42.45
2022-08-23T17:36:39.199Z,42.53
2022-08-23T17:39:29.175Z,42.58
2022-08-23T17:42:15.171Z,42.52
2022-08-23T17:45:01.195Z,42.66
2022-08-23T17:47:48.865Z,42.53
2022-08-23T17:50:35.028Z,42.97
2022-08-23T17:53:21.117Z,42.84
2022-08-23T17:56:08.030Z,42.99
2022-08-23T17:58:58.300Z,42.73
2022-08-23T18:01:44.322Z,43.35
2022-08-23T18:04:31.377Z,43.00
2022-08-23T18:07:17.692Z,43.92
2022-08-23T18:10:07.216Z,43.33
2022-08-23T18:12:53.463Z,43.13
2022-08-23T18:15:39.603Z,43.32
2022-08-23T18:18:26.153Z,43.31
2022-08-23T18:21:13.152Z,43.29
2022-08-23T18:23:59.535Z,43.46
2022-08-23T18:27:04.566Z,43.44
2022-08-23T18:29:51.610Z,43.47
2022-08-23T18:32:38.227Z,43.65
2022-08-23T18:35:26.125Z,43.61
2022-08-23T18:38:12.754Z,43.58
2022-08-23T18:40:58.795Z,43.62
2022-08-23T18:43:44.837Z,43.69
2022-08-23T18:46:36.086Z,43.55
2022-08-23T18:49:22.442Z,43.71
2022-08-23T18:52:08.791Z,43.64
2022-08-23T18:54:54.985Z,44.10
2022-08-23T18:57:40.867Z,43.77
2022-08-23T19:00:27.160Z,44.01
2022-08-23T19:03:13.444Z,44.27
2022-08-23T19:05:59.729Z,44.10
2022-08-23T19:08:46.499Z,44.31
2022-08-23T19:11:33.530Z,44.38
2022-08-23T19:14:19.715Z,44.34
2022-08-23T19:17:08.121Z,44.57
2022-08-23T19:19:54.324Z,44.90
2022-08-23T19:22:40.124Z,44.80
2022-08-23T19:25:27.149Z,44.73
2022-08-23T19:28:14.641Z,46.15
2022-08-23T19:31:01.015Z,45.42
2022-08-23T19:33:46.878Z,45.44
2022-08-23T19:36:45.667Z,45.28
2022-08-23T19:39:32.159Z,45.29
2022-08-23T19:42:20.605Z,45.19
2022-08-23T19:45:07.721Z,45.21
2022-08-23T19:47:54.532Z,45.45
2022-08-23T19:50:41.365Z,45.33
2022-08-23T19:53:27.197Z,45.67
2022-08-23T19:56:13.365Z,45.62
2022-08-23T19:58:59.622Z,45.79
2022-08-23T20:01:45.846Z,45.40
2022-08-23T20:04:32.749Z,45.63
2022-08-23T20:07:19.063Z,45.60
2022-08-23T20:10:07.234Z,45.64
2022-08-23T20:12:53.615Z,45.89
2022-08-23T20:15:40.205Z,46.07
2022-08-23T20:18:26.217Z,45.91
2022-08-23T20:21:12.593Z,45.80
2022-08-23T20:24:04.929Z,46.19
2022-08-23T20:26:52.533Z,46.28
2022-08-23T20:29:38.556Z,46.12
2022-08-23T20:32:24.513Z,46.48
2022-08-23T20:35:11.638Z,46.39
2022-08-23T20:37:57.945Z,46.24
2022-08-23T20:40:43.676Z,46.49
2022-08-23T20:43:29.724Z,46.30
2022-08-23T20:46:15.706Z,46.69
2022-08-23T20:49:01.985Z,46.69
2022-08-23T20:51:48.264Z,46.74
2022-08-23T20:54:36.050Z,46.58
2022-08-23T20:57:22.123Z,46.96
2022-08-23T21:00:08.573Z,46.84
2022-08-23T21:02:54.366Z,46.98
2022-08-23T21:05:40.468Z,46.82
2022-08-23T21:08:27.456Z,46.83
2022-08-23T21:11:13.529Z,47.00
2022-08-23T21:13:59.486Z,47.43
2022-08-23T21:16:45.749Z,47.06
2022-08-23T21:19:31.559Z,47.08
2022-08-23T21:22:17.485Z,47.18
2022-08-23T21:25:03.547Z,47.38
2022-08-23T21:27:49.744Z,47.63
2022-08-23T21:30:36.476Z,47.65
2022-08-23T21:33:22.424Z,47.34
2022-08-23T21:36:10.033Z,47.56
2022-08-23T21:38:56.703Z,47.93
2022-08-23T21:41:44.502Z,47.57
2022-08-23T21:44:30.449Z,47.92
2022-08-23T21:47:16.731Z,47.80
2022-08-23T21:50:02.611Z,48.10
2022-08-23T21:52:56.539Z,48.17
2022-08-23T21:55:42.995Z,48.38
2022-08-23T21:58:30.673Z,48.13
2022-08-23T22:01:16.589Z,48.51
2022-08-23T22:04:06.064Z,48.57
2022-08-23T22:06:52.004Z,48.38
2022-08-23T22:09:42.233Z,48.41
2022-08-23T22:12:28.121Z,48.76
2022-08-23T22:15:14.587Z,48.70
2022-08-23T22:18:01.553Z,48.74
2022-08-23T22:20:47.496Z,48.93
2022-08-23T22:23:34.145Z,48.96
2022-08-23T22:26:20.802Z,49.15
2022-08-23T22:29:07.350Z,49.16
2022-08-23T22:31:53.762Z,48.96
2022-08-23T22:34:39.754Z,49.32
2022-08-23T22:37:25.616Z,49.24
2022-08-23T22:40:12.087Z,49.12
2022-08-23T22:42:59.299Z,49.08
2022-08-23T22:45:52.014Z,49.38
2022-08-23T22:48:38.346Z,49.30
2022-08-23T22:51:27.659Z,49.47
2022-08-23T22:54:15.184Z,49.42
2022-08-23T22:57:00.894Z,49.63
2022-08-23T22:59:46.801Z,49.37
2022-08-23T23:02:36.425Z,49.39
2022-08-23T23:05:22.841Z,49.65
2022-08-23T23:08:27.301Z,49.84
2022-08-23T23:11:14.324Z,49.84
2022-08-23T23:14:00.342Z,50.07
2022-08-23T23:16:49.220Z,50.15
2022-08-23T23:19:54.145Z,50.02
2022-08-23T23:22:40.077Z,50.27
2022-08-23T23:25:25.853Z,50.11
2022-08-23T23:28:12.165Z,50.14
2022-08-23T23:30:59.384Z,50.23
2022-08-23T23:33:45.558Z,50.39
2022-08-23T23:36:31.552Z,50.43
2022-08-23T23:39:17.673Z,50.42
2022-08-23T23:42:03.580Z,50.53
2022-08-23T23:44:49.741Z,50.35
2022-08-23T23:47:35.526Z,50.84
2022-08-23T23:50:22.252Z,51.04
2022-08-23T23:53:08.741Z,50.79
2022-08-23T23:56:02.083Z,51.07
2022-08-23T23:58:48.623Z,51.04
